Terminal Aerodrome Forecast
Issued by NWS Anchorage, AK

Home | Current Version | Previous Version | Text Only | Print | Product List | Glossary On
Versions: 1 2 3 4 5 6 7 8 9 10 11 12 13 14 15 16 17 18 19 20 21 22 23 24 25 26 27
000
FTAK31 PANC 230102 AAB
TAFANC
TAF AMD
PANC 230102Z 2301/2406 02004KT P6SM VCSH SCT022 BKN060
      TEMPO 2301/2303 5SM -SHSN SCT022 OVC035
     FM230600 01007KT P6SM SCT040 BKN070
     FM240000 01008KT P6SM VCSH SCT030 OVC050=

USA.gov is the U.S. government's official web portal to all federal, state and local government web resources and services.